Weather Data

Pearl Creek Farm: 8878 N Farm Road 75, Walnut Grove MO 65770

<== Previous Day (Tuesday 24 Mar 2009) | Next Day (Thursday 26 Mar 2009) ==>

Summary Precipitation Data For Wednesday 25 March 2009

ElementValueUnits
PrecipitationT
Notes(none)
SourceSpringfield-Branson National Airport (SGF)

Summary Temperature Data For Wednesday 25 March 2009

ElementValueUnits
High Temperature55 oF
Low Temperature35 oF
Average Temperature46 oF
High Humidity82 %
Low Humidity35 %
Average Humidity60 %
SourceSpringfield-Branson National Airport (SGF)

Detail Temperature Data For Wednesday 25 March 2009

Date / TimeTemp (F)RH (%)Dew Pt (F)Report Date / TimeSource
2009-03-25 19:52:00 48 68 38.0 2017-12-29 19:14:24.89625 Springfield-Branson National Airport (SGF)
2009-03-25 17:52:00 52 47 32.0 2017-12-29 19:14:24.89625 Springfield-Branson National Airport (SGF)
2009-03-25 18:52:00 51 50 33.0 2017-12-29 19:14:24.89625 Springfield-Branson National Airport (SGF)
2009-03-25 20:52:00 48 66 37.0 2017-12-29 19:14:24.89625 Springfield-Branson National Airport (SGF)
2009-03-25 21:52:00 47 71 38.0 2017-12-29 19:14:24.89625 Springfield-Branson National Airport (SGF)
2009-03-25 22:52:00 47 71 38.0 2017-12-29 19:14:24.89625 Springfield-Branson National Airport (SGF)
2009-03-25 23:52:00 47 71 38.0 2017-12-29 19:14:24.89625 Springfield-Branson National Airport (SGF)
2009-03-25 00:52:00 41 65 30.0 2017-12-29 19:14:24.89625 Springfield-Branson National Airport (SGF)
2009-03-25 01:52:00 40 63 28.0 2017-12-29 19:14:24.89625 Springfield-Branson National Airport (SGF)
2009-03-25 02:52:00 37 76 30.0 2017-12-29 19:14:24.89625 Springfield-Branson National Airport (SGF)
2009-03-25 03:52:00 35 82 30.0 2017-12-29 19:14:24.89625 Springfield-Branson National Airport (SGF)
2009-03-25 04:52:00 35 78 29.0 2017-12-29 19:14:24.89625 Springfield-Branson National Airport (SGF)
2009-03-25 05:52:00 37 70 28.0 2017-12-29 19:14:24.89625 Springfield-Branson National Airport (SGF)
2009-03-25 06:52:00 37 73 29.0 2017-12-29 19:14:24.89625 Springfield-Branson National Airport (SGF)
2009-03-25 07:52:00 39 67 29.0 2017-12-29 19:14:24.89625 Springfield-Branson National Airport (SGF)
2009-03-25 08:52:00 41 65 30.0 2017-12-29 19:14:24.89625 Springfield-Branson National Airport (SGF)
2009-03-25 09:52:00 44 60 31.0 2017-12-29 19:14:24.89625 Springfield-Branson National Airport (SGF)
2009-03-25 10:52:00 47 52 30.0 2017-12-29 19:14:24.89625 Springfield-Branson National Airport (SGF)
2009-03-25 11:52:00 50 48 31.0 2017-12-29 19:14:24.89625 Springfield-Branson National Airport (SGF)
2009-03-25 12:52:00 51 41 28.0 2017-12-29 19:14:24.89625 Springfield-Branson National Airport (SGF)
2009-03-25 13:52:00 54 38 29.0 2017-12-29 19:14:24.89625 Springfield-Branson National Airport (SGF)
2009-03-25 14:52:00 55 37 29.0 2017-12-29 19:14:24.89625 Springfield-Branson National Airport (SGF)
2009-03-25 15:52:00 55 35 28.0 2017-12-29 19:14:24.89625 Springfield-Branson National Airport (SGF)
2009-03-25 16:52:00 55 37 29.0 2017-12-29 19:14:24.89625 Springfield-Branson National Airport (SGF)

A total of 24 rows are displayed.